TimeAKST,TemperatureF,Dew PointF,Humidity,Sea Level PressureIn,VisibilityMPH,Wind Direction,Wind SpeedMPH,Gust SpeedMPH,PrecipitationIn,Events,Conditions,WindDirDegrees,DateUTC
12:53 AM,-31.0,-9999,N/A,30.10,10.0,NNE,5.8,-,N/A,,Partly Cloudy,30,2013-02-09 09:53:00
1:53 AM,-33.0,-9999,N/A,30.11,10.0,Calm,Calm,-,N/A,,Clear,0,2013-02-09 10:53:00
3:53 AM,-32.1,-9999,N/A,30.11,10.0,North,4.6,-,N/A,,Clear,10,2013-02-09 12:53:00
4:53 AM,-33.0,-9999,N/A,30.09,10.0,NNE,4.6,-,N/A,,Clear,30,2013-02-09 13:53:00
5:53 AM,-34.1,-9999,N/A,30.07,9.0,NE,5.8,-,N/A,,Clear,50,2013-02-09 14:53:00
6:53 AM,-35.0,-9999,N/A,30.07,10.0,ENE,4.6,-,N/A,,Clear,70,2013-02-09 15:53:00
7:53 AM,-35.0,-9999,N/A,30.06,10.0,North,-9999.0,-,N/A,,Clear,0,2013-02-09 16:53:00
9:28 AM,-34.6,-9999,N/A,30.01,10.0,ENE,9.2,-,N/A,,Unknown,70,2013-02-09 18:28:00
9:53 AM,-34.1,-9999,N/A,30.01,10.0,NE,9.2,-,N/A,,Clear,50,2013-02-09 18:53:00
10:35 AM,-9999,-9999,N/A,30.00,-9999.0,ENE,9.2,-,N/A,,Unknown,70,2013-02-09 19:35:00
10:53 AM,-35.0,-9999,N/A,30.00,10.0,NE,9.2,-,N/A,,Unknown,50,2013-02-09 19:53:00
11:04 AM,-34.6,-9999,N/A,29.99,7.0,ENE,9.2,-,N/A,,Clear,60,2013-02-09 20:04:00
11:53 AM,-33.0,-9999,N/A,29.99,8.0,NE,9.2,-,N/A,,Clear,50,2013-02-09 20:53:00
12:10 PM,-32.8,-9999,N/A,29.97,8.0,NE,12.7,-,N/A,,Clear,50,2013-02-09 21:10:00
12:53 PM,-32.1,-9999,N/A,29.97,6.0,NE,11.5,-,N/A,,Haze,40,2013-02-09 21:53:00
1:10 PM,-32.8,-9999,N/A,29.95,4.0,NE,13.8,-,N/A,,Haze,50,2013-02-09 22:10:00
1:51 PM,-31.0,-9999,N/A,29.91,2.5,NE,16.1,-,N/A,,Clear,40,2013-02-09 22:51:00
1:53 PM,-31.0,-9999,N/A,29.92,2.5,NE,16.1,-,N/A,,Clear,40,2013-02-09 22:53:00
2:44 PM,-29.2,-34.6,75,29.88,3.0,NE,17.3,-,N/A,,Haze,40,2013-02-09 23:44:00
2:53 PM,-29.0,-35.0,73,29.89,4.0,NE,15.0,-,N/A,,Haze,50,2013-02-09 23:53:00
3:53 PM,-29.0,-34.1,77,29.86,3.0,NE,15.0,-,N/A,,Haze,40,2013-02-10 00:53:00
4:36 PM,-27.4,-32.8,75,29.82,2.5,NE,18.4,-,N/A,,Haze,40,2013-02-10 01:36:00
4:53 PM,-27.9,-33.0,77,29.82,2.0,NE,19.6,-,N/A,,Haze,40,2013-02-10 01:53:00
5:40 PM,-25.6,-31.0,76,29.79,3.0,NE,18.4,-,N/A,,Haze,40,2013-02-10 02:40:00
5:53 PM,-26.0,-31.0,77,29.80,4.0,NE,19.6,-,N/A,,Haze,40,2013-02-10 02:53:00
6:53 PM,-25.1,-29.9,78,29.76,4.0,NE,23.0,-,N/A,,Haze,40,2013-02-10 03:53:00
7:53 PM,-24.0,-29.0,77,29.70,3.0,NE,24.2,-,N/A,,Haze,40,2013-02-10 04:53:00
8:53 PM,-23.1,-27.9,78,29.67,3.0,NE,21.9,-,N/A,,Haze,50,2013-02-10 05:53:00
8:57 PM,-23.8,-27.4,83,29.67,2.5,NE,21.9,-,N/A,,Haze,40,2013-02-10 05:57:00
9:11 PM,-23.8,-27.4,83,29.66,2.5,NE,20.7,-,N/A,,Haze,40,2013-02-10 06:11:00
9:44 PM,-23.8,-27.4,83,29.63,1.8,NE,20.7,-,N/A,,Haze,40,2013-02-10 06:44:00
9:53 PM,-22.0,-27.0,77,29.64,2.0,NE,20.7,-,N/A,,Haze,40,2013-02-10 06:53:00
10:15 PM,-22.0,-27.4,76,29.63,1.8,NE,19.6,-,N/A,,Haze,40,2013-02-10 07:15:00
10:24 PM,-22.0,-27.4,76,29.62,2.0,NE,23.0,-,N/A,,Haze,40,2013-02-10 07:24:00
10:53 PM,-22.0,-27.0,77,29.63,2.0,NE,19.6,-,N/A,,Haze,40,2013-02-10 07:53:00
11:53 PM,-20.9,-26.0,77,29.60,2.0,NE,19.6,-,N/A,,Haze,40,2013-02-10 08:53:00